Time;durP1;ratioP1;P1;durP2;ratioP2;P2;SDS_P1;SDS_P2;PMS_P1;PMS_P2;Temp;Humidity;BMP_temperature;BMP_pressure;BME280_temperature;BME280_humidity;BME280_pressure;Samples;Min_cycle;Max_cycle;Signal;HPM_P1;HPM_P2
2021/07/13 00:00:25;;;;;;;0.10;0.10;;;;;;;;;;4921519;29;20102;-91
2021/07/13 00:02:51;;;;;;;;;;;;;;;;;;4955211;28;20118;-91
2021/07/13 00:05:18;;;;;;;0.10;0.10;;;;;;;;;;4940433;29;20401;-90
2021/07/13 00:07:45;;;;;;;0.10;0.10;;;;;;;;;;4940779;29;20491;-91
2021/07/13 00:10:12;;;;;;;0.17;0.17;;;;;;;;;;4956400;28;20039;-92
2021/07/13 00:12:38;;;;;;;0.20;0.20;;;;;;;;;;4940625;29;20062;-91
2021/07/13 00:15:11;;;;;;;0.22;0.22;;;;;;;;;;4940515;29;20392;-91
2021/07/13 00:17:37;;;;;;;0.10;0.10;;;;;;;;;;4940317;29;20074;-91
2021/07/13 00:20:04;;;;;;;0.10;0.10;;;;;;;;;;4940348;28;20079;-92
2021/07/13 00:22:30;;;;;;;0.10;0.10;;;;;;;;;;4924567;29;20130;-90
2021/07/13 00:24:56;;;;;;;0.10;0.10;;;;;;;;;;4939590;29;20114;-90
2021/07/13 00:27:22;;;;;;;0.15;0.15;;;;;;;;;;4924275;29;20043;-89
2021/07/13 00:29:48;;;;;;;0.20;0.20;;;;;;;;;;4940177;29;20070;-91
2021/07/13 00:32:14;;;;;;;0.20;0.20;;;;;;;;;;4939811;29;20114;-90
2021/07/13 00:34:41;;;;;;;0.20;0.20;;;;;;;;;;4939522;28;20118;-91
2021/07/13 00:37:07;;;;;;;0.90;0.40;;;;;;;;;;4939960;29;20054;-89
2021/07/13 00:39:33;;;;;;;0.20;0.20;;;;;;;;;;4939363;29;20114;-90
2021/07/13 00:41:59;;;;;;;0.10;0.10;;;;;;;;;;4939578;29;20047;-89
2021/07/13 00:44:25;;;;;;;0.32;0.32;;;;;;;;;;4938959;29;20587;-89
2021/07/13 00:46:51;;;;;;;0.17;0.17;;;;;;;;;;4955168;28;20035;-90
2021/07/13 00:49:18;;;;;;;0.10;0.10;;;;;;;;;;4923872;28;20451;-90
2021/07/13 00:51:44;;;;;;;0.10;0.10;;;;;;;;;;4939310;29;20250;-89
2021/07/13 00:54:10;;;;;;;0.35;0.35;;;;;;;;;;4939153;29;20047;-90
2021/07/13 00:56:37;;;;;;;0.20;0.20;;;;;;;;;;4939181;29;20043;-89
2021/07/13 00:59:03;;;;;;;0.10;0.10;;;;;;;;;;4938888;29;20122;-89
2021/07/13 01:01:30;;;;;;;0.20;0.20;;;;;;;;;;4939004;29;20043;-89
2021/07/13 01:03:56;;;;;;;0.20;0.20;;;;;;;;;;4939068;29;20074;-89
2021/07/13 01:06:22;;;;;;;0.20;0.20;;;;;;;;;;4954995;29;20122;-90
2021/07/13 01:08:50;;;;;;;0.20;0.20;;;;;;;;;;4939526;29;20487;-90
2021/07/13 01:11:31;;;;;;;0.10;0.10;;;;;;;;;;4954839;29;20546;-90
2021/07/13 01:14:05;;;;;;;0.20;0.20;;;;;;;;;;4938981;29;20046;-91
2021/07/13 01:16:33;;;;;;;0.20;0.20;;;;;;;;;;4938997;29;20039;-90
2021/07/13 01:19:05;;;;;;;0.20;0.20;;;;;;;;;;4939262;29;20047;-90
2021/07/13 01:21:46;;;;;;;0.75;0.50;;;;;;;;;;4939017;29;20048;-90
2021/07/13 01:24:12;;;;;;;0.20;0.20;;;;;;;;;;4939091;29;20031;-90
2021/07/13 01:26:58;;;;;;;0.20;0.20;;;;;;;;;;4954438;28;20074;-90
2021/07/13 01:29:25;;;;;;;0.10;0.10;;;;;;;;;;4938950;29;20078;-90
2021/07/13 01:31:51;;;;;;;0.10;0.10;;;;;;;;;;4938735;29;20411;-91
2021/07/13 01:34:18;;;;;;;0.25;0.25;;;;;;;;;;4938676;29;20051;-91
2021/07/13 01:36:47;;;;;;;0.30;0.20;;;;;;;;;;4938860;29;20475;-92
2021/07/13 01:39:13;;;;;;;0.43;0.25;;;;;;;;;;4954647;28;20054;-92
2021/07/13 01:41:39;;;;;;;0.20;0.20;;;;;;;;;;4923210;29;20045;-91
2021/07/13 01:44:06;;;;;;;0.20;0.20;;;;;;;;;;4938917;29;20075;-91
2021/07/13 01:46:32;;;;;;;0.20;0.20;;;;;;;;;;4938751;29;20125;-91
2021/07/13 01:48:59;;;;;;;0.30;0.30;;;;;;;;;;4938714;29;20092;-92
2021/07/13 01:51:25;;;;;;;0.20;0.20;;;;;;;;;;4955681;29;20411;-92
2021/07/13 01:53:51;;;;;;;0.10;0.10;;;;;;;;;;4938682;29;20082;-91
2021/07/13 01:56:17;;;;;;;0.17;0.17;;;;;;;;;;4938140;29;20056;-91
2021/07/13 01:58:43;;;;;;;0.10;0.10;;;;;;;;;;4938259;29;20078;-90
2021/07/13 02:01:20;;;;;;;0.10;0.10;;;;;;;;;;4938379;29;20120;-89
2021/07/13 02:03:49;;;;;;;0.10;0.10;;;;;;;;;;4938417;29;20063;-90
2021/07/13 02:06:15;;;;;;;0.13;0.13;;;;;;;;;;4938247;28;20451;-90
2021/07/13 02:08:42;;;;;;;0.20;0.20;;;;;;;;;;4938427;29;20043;-90
2021/07/13 02:11:09;;;;;;;0.10;0.10;;;;;;;;;;4954206;28;20067;-91
2021/07/13 02:13:36;;;;;;;0.10;0.10;;;;;;;;;;4938242;29;20045;-91
2021/07/13 02:16:03;;;;;;;0.30;0.30;;;;;;;;;;4954191;29;20467;-91
2021/07/13 02:18:30;;;;;;;0.30;0.30;;;;;;;;;;4938373;29;20038;-89
2021/07/13 02:20:56;;;;;;;0.10;0.10;;;;;;;;;;4954206;28;20107;-90
2021/07/13 02:23:22;;;;;;;0.13;0.13;;;;;;;;;;4938057;29;20039;-91
2021/07/13 02:25:49;;;;;;;0.20;0.20;;;;;;;;;;4937525;29;20138;-91
2021/07/13 02:28:27;;;;;;;0.20;0.20;;;;;;;;;;4937777;29;20046;-90
2021/07/13 02:30:57;;;;;;;0.20;0.20;;;;;;;;;;4937810;29;20047;-89
2021/07/13 02:33:30;;;;;;;0.20;0.20;;;;;;;;;;4922822;28;20065;-90
2021/07/13 02:35:58;;;;;;;0.20;0.20;;;;;;;;;;4938217;29;20035;-91
2021/07/13 02:38:24;;;;;;;0.17;0.17;;;;;;;;;;4938174;29;20546;-91
2021/07/13 02:40:51;;;;;;;0.15;0.15;;;;;;;;;;4922312;29;20079;-91
2021/07/13 02:43:17;;;;;;;1.05;0.45;;;;;;;;;;4937750;29;20050;-90
2021/07/13 02:45:43;;;;;;;0.10;0.10;;;;;;;;;;4937629;28;20039;-91
2021/07/13 02:48:09;;;;;;;0.20;0.20;;;;;;;;;;4937838;28;20175;-90
2021/07/13 02:50:35;;;;;;;0.20;0.20;;;;;;;;;;4937995;29;20098;-90
2021/07/13 02:53:02;;;;;;;0.20;0.20;;;;;;;;;;4938097;29;20065;-92
2021/07/13 02:55:30;;;;;;;0.20;0.20;;;;;;;;;;4937821;29;20043;-90
2021/07/13 02:57:57;;;;;;;0.20;0.20;;;;;;;;;;4953717;28;20122;-90
2021/07/13 03:00:23;;;;;;;0.10;0.10;;;;;;;;;;4937617;28;20062;-90
2021/07/13 03:02:50;;;;;;;0.20;0.20;;;;;;;;;;4937459;29;20066;-90
2021/07/13 03:05:17;;;;;;;0.20;0.20;;;;;;;;;;4937475;29;20468;-90
2021/07/13 03:07:44;;;;;;;0.20;0.20;;;;;;;;;;4937397;29;20043;-91
2021/07/13 03:10:10;;;;;;;0.20;0.20;;;;;;;;;;4937679;29;20047;-91
2021/07/13 03:12:38;;;;;;;0.10;0.10;;;;;;;;;;4937976;29;20043;-90
2021/07/13 03:15:05;;;;;;;0.10;0.10;;;;;;;;;;4937692;29;20043;-91
2021/07/13 03:17:31;;;;;;;0.15;0.15;;;;;;;;;;4937708;29;20039;-90
2021/07/13 03:19:57;;;;;;;0.20;0.20;;;;;;;;;;4938036;29;20460;-92
2021/07/13 03:22:34;;;;;;;0.10;0.10;;;;;;;;;;4937605;29;20032;-90
2021/07/13 03:25:01;;;;;;;0.10;0.10;;;;;;;;;;4922228;29;20071;-91
2021/07/13 03:27:30;;;;;;;0.20;0.20;;;;;;;;;;4937475;28;20040;-93
2021/07/13 03:29:57;;;;;;;0.10;0.10;;;;;;;;;;4923206;29;20043;-92
2021/07/13 03:32:23;;;;;;;0.20;0.20;;;;;;;;;;4938102;29;20046;-91
2021/07/13 03:34:49;;;;;;;0.30;0.30;;;;;;;;;;4921479;29;20074;-92
2021/07/13 03:37:15;;;;;;;0.10;0.10;;;;;;;;;;4923636;29;20462;-89
2021/07/13 03:39:42;;;;;;;0.20;0.20;;;;;;;;;;4940290;29;20051;-90
2021/07/13 03:42:08;;;;;;;0.10;0.10;;;;;;;;;;4940642;28;20039;-90
2021/07/13 03:44:34;;;;;;;0.43;0.43;;;;;;;;;;4940667;29;20038;-90
2021/07/13 03:47:00;;;;;;;0.10;0.10;;;;;;;;;;4925269;29;20047;-91
2021/07/13 03:49:26;;;;;;;0.10;0.10;;;;;;;;;;4941265;29;20043;-92
2021/07/13 03:51:52;;;;;;;0.30;0.30;;;;;;;;;;4941055;29;20042;-92
2021/07/13 03:54:19;;;;;;;0.20;0.20;;;;;;;;;;4940636;29;20083;-92
2021/07/13 03:56:46;;;;;;;0.20;0.20;;;;;;;;;;4941004;28;20083;-91
2021/07/13 03:59:12;;;;;;;0.10;0.10;;;;;;;;;;4941012;29;20052;-92
2021/07/13 04:01:38;;;;;;;0.10;0.10;;;;;;;;;;4941159;29;20043;-91
2021/07/13 04:04:04;;;;;;;0.35;0.35;;;;;;;;;;4941001;29;20035;-92
2021/07/13 04:06:31;;;;;;;0.10;0.10;;;;;;;;;;4940770;29;20062;-91
2021/07/13 04:08:57;;;;;;;0.20;0.20;;;;;;;;;;4956365;28;20404;-91
2021/07/13 04:11:23;;;;;;;0.20;0.20;;;;;;;;;;4940398;29;20039;-92
2021/07/13 04:13:51;;;;;;;0.10;0.10;;;;;;;;;;4940616;29;20591;-91
2021/07/13 04:16:17;;;;;;;0.10;0.10;;;;;;;;;;4940374;29;20063;-92
2021/07/13 04:18:43;;;;;;;0.20;0.20;;;;;;;;;;4924531;29;20098;-92
2021/07/13 04:21:10;;;;;;;0.10;0.10;;;;;;;;;;4940308;29;20098;-91
2021/07/13 04:23:36;;;;;;;0.10;0.10;;;;;;;;;;4940170;29;20046;-90
2021/07/13 04:26:03;;;;;;;0.22;0.22;;;;;;;;;;4924998;28;20047;-91
2021/07/13 04:28:31;;;;;;;0.30;0.30;;;;;;;;;;4940080;29;20047;-90
2021/07/13 04:30:58;;;;;;;0.10;0.10;;;;;;;;;;4939921;29;20039;-91
2021/07/13 04:33:24;;;;;;;0.20;0.20;;;;;;;;;;4936380;29;20052;-90
2021/07/13 04:35:50;;;;;;;0.10;0.10;;;;;;;;;;4936747;29;20040;-89
2021/07/13 04:38:16;;;;;;;0.20;0.20;;;;;;;;;;4936390;29;20507;-92
2021/07/13 04:40:43;;;;;;;0.17;0.17;;;;;;;;;;4937185;29;20075;-92
2021/07/13 04:43:09;;;;;;;0.10;0.10;;;;;;;;;;4936718;29;20136;-90
2021/07/13 04:45:35;;;;;;;0.20;0.20;;;;;;;;;;4920861;29;20419;-90
2021/07/13 04:48:01;;;;;;;0.20;0.20;;;;;;;;;;4935819;29;20481;-90
2021/07/13 04:50:28;;;;;;;0.20;0.20;;;;;;;;;;4936508;29;20118;-90
2021/07/13 04:52:55;;;;;;;0.10;0.10;;;;;;;;;;4936228;29;20143;-90
2021/07/13 04:55:21;;;;;;;0.20;0.20;;;;;;;;;;4936283;29;20044;-90
2021/07/13 04:57:47;;;;;;;0.90;0.68;;;;;;;;;;4936105;29;20126;-90
2021/07/13 05:00:14;;;;;;;0.10;0.10;;;;;;;;;;4920303;29;20052;-90
2021/07/13 05:02:40;;;;;;;0.30;0.30;;;;;;;;;;4936259;29;20118;-90
2021/07/13 05:05:06;;;;;;;0.10;0.10;;;;;;;;;;4936416;29;20031;-90
2021/07/13 05:07:32;;;;;;;0.20;0.20;;;;;;;;;;4936271;29;20036;-90
2021/07/13 05:09:59;;;;;;;0.10;0.10;;;;;;;;;;4936017;29;20485;-90
2021/07/13 05:12:25;;;;;;;0.47;0.40;;;;;;;;;;4920166;29;20186;-90
2021/07/13 05:14:53;;;;;;;0.10;0.10;;;;;;;;;;4936037;29;20040;-90
2021/07/13 05:17:19;;;;;;;0.20;0.20;;;;;;;;;;4935721;29;20543;-90
2021/07/13 05:19:48;;;;;;;0.13;0.13;;;;;;;;;;4935419;29;20052;-89
2021/07/13 05:22:14;;;;;;;0.52;0.20;;;;;;;;;;4936008;29;20110;-89
2021/07/13 05:24:40;;;;;;;0.60;0.60;;;;;;;;;;4935338;29;20046;-88
2021/07/13 05:27:09;;;;;;;0.20;0.20;;;;;;;;;;4935195;29;20043;-89
2021/07/13 05:29:35;;;;;;;0.10;0.10;;;;;;;;;;4935579;29;20047;-89
2021/07/13 05:32:01;;;;;;;0.20;0.20;;;;;;;;;;4935588;29;20038;-89
2021/07/13 05:34:27;;;;;;;0.20;0.20;;;;;;;;;;4934760;29;20079;-89
2021/07/13 05:36:55;;;;;;;0.20;0.20;;;;;;;;;;4935391;29;20086;-92
2021/07/13 05:39:21;;;;;;;0.20;0.20;;;;;;;;;;4951593;28;20039;-90
2021/07/13 05:41:47;;;;;;;0.20;0.20;;;;;;;;;;4941630;28;20046;-91
2021/07/13 05:44:13;;;;;;;0.35;0.35;;;;;;;;;;4929089;29;20069;-90
2021/07/13 05:46:39;;;;;;;0.10;0.10;;;;;;;;;;4938849;29;20046;-90
2021/07/13 05:49:05;;;;;;;0.38;0.38;;;;;;;;;;4954655;28;20049;-91
2021/07/13 05:51:31;;;;;;;0.30;0.30;;;;;;;;;;4954670;28;20118;-90
2021/07/13 05:53:58;;;;;;;0.20;0.20;;;;;;;;;;4954390;28;20043;-89
2021/07/13 05:56:24;;;;;;;0.20;0.20;;;;;;;;;;4953809;29;20031;-90
2021/07/13 05:58:51;;;;;;;0.10;0.10;;;;;;;;;;4953905;28;20051;-89
2021/07/13 06:01:18;;;;;;;0.57;0.57;;;;;;;;;;4937281;29;20039;-88
2021/07/13 06:03:45;;;;;;;0.30;0.30;;;;;;;;;;4938555;29;20067;-90
2021/07/13 06:06:11;;;;;;;0.20;0.20;;;;;;;;;;4938505;29;20130;-92
2021/07/13 06:08:37;;;;;;;0.40;0.40;;;;;;;;;;4954486;28;20114;-92
2021/07/13 06:11:03;;;;;;;0.10;0.10;;;;;;;;;;4954563;28;20043;-92
2021/07/13 06:13:29;;;;;;;0.20;0.20;;;;;;;;;;4954704;28;20447;-92
2021/07/13 06:15:56;;;;;;;0.32;0.32;;;;;;;;;;4938777;29;20043;-93
2021/07/13 06:18:22;;;;;;;0.10;0.10;;;;;;;;;;4938234;29;20043;-93
2021/07/13 06:20:49;;;;;;;0.10;0.10;;;;;;;;;;4938976;29;20555;-93
2021/07/13 06:23:15;;;;;;;0.30;0.30;;;;;;;;;;4955451;29;20483;-93
2021/07/13 06:25:42;;;;;;;0.20;0.20;;;;;;;;;;4955129;28;20059;-92
2021/07/13 06:28:08;;;;;;;0.20;0.20;;;;;;;;;;4955982;28;20234;-93
2021/07/13 06:30:39;;;;;;;0.13;0.13;;;;;;;;;;4956128;28;20042;-92
2021/07/13 06:33:06;;;;;;;0.73;0.73;;;;;;;;;;4926998;28;20055;-89
2021/07/13 06:35:32;;;;;;;0.68;0.68;;;;;;;;;;4957877;28;20117;-89
2021/07/13 06:37:59;;;;;;;0.10;0.10;;;;;;;;;;4941470;28;20062;-88
2021/07/13 06:40:27;;;;;;;0.38;0.38;;;;;;;;;;4956756;28;20113;-91
2021/07/13 06:42:53;;;;;;;0.20;0.20;;;;;;;;;;4957442;28;20039;-91
2021/07/13 06:45:19;;;;;;;0.60;0.60;;;;;;;;;;4957565;28;20050;-91
2021/07/13 06:47:45;;;;;;;2.72;1.00;;;;;;;;;;4941840;28;20073;-90
2021/07/13 06:50:12;;;;;;;0.20;0.20;;;;;;;;;;4945054;28;20561;-91
2021/07/13 06:52:38;;;;;;;0.10;0.10;;;;;;;;;;4960357;28;20166;-90
2021/07/13 06:55:07;;;;;;;0.30;0.30;;;;;;;;;;4957317;28;20065;-90
2021/07/13 06:57:33;;;;;;;0.17;0.17;;;;;;;;;;4959727;28;20071;-89
2021/07/13 06:59:59;;;;;;;0.20;0.20;;;;;;;;;;4944048;28;20053;-92
2021/07/13 07:02:28;;;;;;;0.17;0.13;;;;;;;;;;4958649;28;20043;-90
2021/07/13 07:04:54;;;;;;;0.10;0.10;;;;;;;;;;4958262;28;20062;-91
2021/07/13 07:07:20;;;;;;;0.10;0.10;;;;;;;;;;4957887;28;20039;-91
2021/07/13 07:09:46;;;;;;;0.20;0.20;;;;;;;;;;4957218;28;20050;-90
2021/07/13 07:12:12;;;;;;;0.20;0.20;;;;;;;;;;4959610;28;20093;-91
2021/07/13 07:14:39;;;;;;;0.10;0.10;;;;;;;;;;4945288;28;20163;-91
2021/07/13 07:17:05;;;;;;;0.20;0.20;;;;;;;;;;4945229;28;20403;-91
2021/07/13 07:19:31;;;;;;;0.20;0.20;;;;;;;;;;4960945;28;20486;-90
2021/07/13 07:21:57;;;;;;;0.10;0.10;;;;;;;;;;4961086;28;20094;-91
2021/07/13 07:24:23;;;;;;;0.13;0.13;;;;;;;;;;4960852;28;20380;-91
2021/07/13 07:26:49;;;;;;;0.13;0.13;;;;;;;;;;4960596;28;20039;-91
2021/07/13 07:29:15;;;;;;;0.20;0.20;;;;;;;;;;4960657;28;20606;-91
2021/07/13 07:31:42;;;;;;;0.95;0.85;;;;;;;;;;4960547;28;20105;-91
2021/07/13 07:34:08;;;;;;;0.20;0.20;;;;;;;;;;4944626;28;20495;-90
2021/07/13 07:36:43;;;;;;;0.20;0.20;;;;;;;;;;4964534;28;20065;-93
2021/07/13 07:39:10;;;;;;;0.10;0.10;;;;;;;;;;4932747;28;20047;-91
2021/07/13 07:41:36;;;;;;;0.30;0.22;;;;;;;;;;4960059;28;20203;-91
2021/07/13 07:44:02;;;;;;;0.20;0.20;;;;;;;;;;4960509;28;20097;-90
2021/07/13 07:46:28;;;;;;;0.20;0.20;;;;;;;;;;4959703;28;20046;-87
2021/07/13 07:48:55;;;;;;;0.60;0.60;;;;;;;;;;4960068;28;20042;-91
2021/07/13 07:51:21;;;;;;;0.20;0.20;;;;;;;;;;4945308;28;20511;-89
2021/07/13 07:53:47;;;;;;;0.20;0.20;;;;;;;;;;4959578;28;20039;-89
2021/07/13 07:56:13;;;;;;;0.30;0.30;;;;;;;;;;4959180;28;20038;-89
2021/07/13 07:58:47;;;;;;;0.28;0.28;;;;;;;;;;4947731;28;20053;-89
2021/07/13 08:01:13;;;;;;;0.20;0.20;;;;;;;;;;4961224;28;20047;-89
2021/07/13 08:03:39;;;;;;;0.38;0.38;;;;;;;;;;4959209;28;20039;-88
2021/07/13 08:06:05;;;;;;;0.40;0.30;;;;;;;;;;4959301;28;20046;-89
2021/07/13 08:08:31;;;;;;;0.10;0.10;;;;;;;;;;4959061;28;20039;-88
2021/07/13 08:10:57;;;;;;;0.20;0.20;;;;;;;;;;4958789;28;20046;-88
2021/07/13 08:13:23;;;;;;;0.10;0.10;;;;;;;;;;4959143;28;20046;-89
2021/07/13 08:15:49;;;;;;;0.20;0.20;;;;;;;;;;4943186;28;20043;-89
2021/07/13 08:18:19;;;;;;;0.63;0.63;;;;;;;;;;4942968;28;20047;-87
2021/07/13 08:20:45;;;;;;;0.28;0.28;;;;;;;;;;4959338;28;20125;-90
2021/07/13 08:23:11;;;;;;;1.20;1.05;;;;;;;;;;4941587;28;20114;-92
2021/07/13 08:25:37;;;;;;;0.10;0.10;;;;;;;;;;4958989;28;20431;-89
2021/07/13 08:28:03;;;;;;;0.20;0.20;;;;;;;;;;4958835;28;20093;-88
2021/07/13 08:30:31;;;;;;;0.20;0.20;;;;;;;;;;4976200;28;20059;-90
2021/07/13 08:32:59;;;;;;;0.20;0.20;;;;;;;;;;4959464;28;20483;-89
2021/07/13 08:35:25;;;;;;;0.20;0.20;;;;;;;;;;4958564;28;20054;-87
2021/07/13 08:37:51;;;;;;;0.30;0.30;;;;;;;;;;4958273;28;20038;-91
2021/07/13 08:40:17;;;;;;;0.10;0.10;;;;;;;;;;4958853;28;20077;-88
2021/07/13 08:42:43;;;;;;;0.20;0.20;;;;;;;;;;4958612;28;20448;-90
2021/07/13 08:45:10;;;;;;;0.20;0.20;;;;;;;;;;4958572;28;20118;-89
2021/07/13 08:47:37;;;;;;;0.20;0.20;;;;;;;;;;4958374;28;20035;-89
2021/07/13 08:50:03;;;;;;;0.52;0.50;;;;;;;;;;4958326;28;20491;-89
2021/07/13 08:52:32;;;;;;;0.10;0.10;;;;;;;;;;4942626;28;20039;-89
2021/07/13 08:54:58;;;;;;;0.20;0.20;;;;;;;;;;4942581;28;20483;-89
2021/07/13 08:57:26;;;;;;;0.30;0.30;;;;;;;;;;4958735;28;20039;-90
2021/07/13 08:59:57;;;;;;;0.20;0.20;;;;;;;;;;4942754;28;20473;-87
2021/07/13 09:02:23;;;;;;;0.20;0.20;;;;;;;;;;4958307;28;20038;-90
2021/07/13 09:04:49;;;;;;;0.13;0.13;;;;;;;;;;4958186;28;20039;-89
2021/07/13 09:07:18;;;;;;;0.20;0.20;;;;;;;;;;4957861;28;20055;-89
2021/07/13 09:09:47;;;;;;;0.20;0.20;;;;;;;;;;4957907;28;20043;-89
2021/07/13 09:12:17;;;;;;;0.20;0.20;;;;;;;;;;4958330;28;20049;-88
2021/07/13 09:14:53;;;;;;;0.30;0.30;;;;;;;;;;4957846;28;20574;-88
2021/07/13 09:17:25;;;;;;;0.20;0.20;;;;;;;;;;4974831;28;20049;-89
2021/07/13 09:20:00;;;;;;;0.22;0.22;;;;;;;;;;4957819;28;20406;-88
2021/07/13 09:22:27;;;;;;;0.10;0.10;;;;;;;;;;4957806;28;20062;-88
2021/07/13 09:24:53;;;;;;;0.20;0.20;;;;;;;;;;4957771;28;20073;-88
2021/07/13 09:27:20;;;;;;;0.20;0.20;;;;;;;;;;4957895;28;20394;-96
2021/07/13 09:29:48;;;;;;;1.33;0.68;;;;;;;;;;4942642;28;20043;-88
2021/07/13 09:32:19;;;;;;;0.20;0.20;;;;;;;;;;4958008;28;20050;-89
2021/07/13 09:34:48;;;;;;;0.20;0.20;;;;;;;;;;4957534;28;20082;-86
2021/07/13 09:37:36;;;;;;;0.20;0.20;;;;;;;;;;4957449;28;20041;-90
2021/07/13 09:40:12;;;;;;;0.20;0.20;;;;;;;;;;4942460;28;20054;-88
2021/07/13 09:42:46;;;;;;;0.20;0.20;;;;;;;;;;4941182;28;20054;-89
2021/07/13 09:45:15;;;;;;;0.30;0.20;;;;;;;;;;4957969;28;20042;-88
2021/07/13 09:47:43;;;;;;;0.10;0.10;;;;;;;;;;4974941;28;20043;-90
2021/07/13 09:50:09;;;;;;;0.13;0.13;;;;;;;;;;4957686;28;20046;-89
2021/07/13 09:52:36;;;;;;;0.20;0.20;;;;;;;;;;4958980;28;20043;-90
2021/07/13 09:55:15;;;;;;;0.20;0.20;;;;;;;;;;4956681;28;20106;-89
2021/07/13 09:57:42;;;;;;;0.20;0.20;;;;;;;;;;4972959;28;20363;-90
2021/07/13 10:00:08;;;;;;;0.40;0.40;;;;;;;;;;4936854;29;20043;-91
2021/07/13 10:02:34;;;;;;;0.30;0.30;;;;;;;;;;4938404;29;20039;-91
2021/07/13 10:05:03;;;;;;;0.20;0.20;;;;;;;;;;4938234;29;20097;-92
2021/07/13 10:07:30;;;;;;;0.10;0.10;;;;;;;;;;4938440;29;20435;-90
2021/07/13 10:09:56;;;;;;;0.20;0.20;;;;;;;;;;4922245;29;20050;-90
2021/07/13 10:12:23;;;;;;;0.10;0.10;;;;;;;;;;4953477;29;20058;-91
2021/07/13 10:14:53;;;;;;;0.20;0.20;;;;;;;;;;4937789;29;20130;-88
2021/07/13 10:17:19;;;;;;;0.60;0.30;;;;;;;;;;4937884;29;20039;-88
2021/07/13 10:19:49;;;;;;;0.20;0.20;;;;;;;;;;4937227;29;20397;-87
2021/07/13 10:22:17;;;;;;;0.10;0.10;;;;;;;;;;4937574;29;20044;-86
2021/07/13 10:24:48;;;;;;;0.10;0.10;;;;;;;;;;4921372;29;20050;-87
2021/07/13 10:27:14;;;;;;;0.10;0.10;;;;;;;;;;4937262;29;20455;-86
2021/07/13 10:29:41;;;;;;;0.20;0.20;;;;;;;;;;4937303;29;20081;-86
2021/07/13 10:32:16;;;;;;;0.20;0.20;;;;;;;;;;4937225;29;20044;-87
2021/07/13 10:34:48;;;;;;;0.20;0.20;;;;;;;;;;4936653;28;20058;-86
2021/07/13 10:37:24;;;;;;;0.57;0.30;;;;;;;;;;4952753;29;20053;-87
2021/07/13 10:39:50;;;;;;;0.20;0.20;;;;;;;;;;4953016;29;20118;-87
2021/07/13 10:42:35;;;;;;;0.20;0.20;;;;;;;;;;4937026;29;20507;-86
2021/07/13 10:45:14;;;;;;;0.20;0.20;;;;;;;;;;4952783;29;20489;-86
2021/07/13 10:47:56;;;;;;;0.20;0.20;;;;;;;;;;4952325;29;20043;-86
2021/07/13 10:50:22;;;;;;;0.20;0.20;;;;;;;;;;4954211;29;20035;-87
2021/07/13 10:52:51;;;;;;;0.10;0.10;;;;;;;;;;4954005;29;20042;-88
2021/07/13 10:55:42;;;;;;;0.20;0.20;;;;;;;;;;4952698;29;20035;-87
2021/07/13 10:58:11;;;;;;;0.20;0.20;;;;;;;;;;4936534;29;20070;-86
2021/07/13 11:00:59;;;;;;;0.20;0.20;;;;;;;;;;4952745;29;20047;-87
2021/07/13 11:03:27;;;;;;;0.30;0.30;;;;;;;;;;4954101;28;20071;-87
2021/07/13 11:05:54;;;;;;;0.52;0.52;;;;;;;;;;4963910;28;20238;-87
2021/07/13 11:08:39;;;;;;;0.20;0.20;;;;;;;;;;4955910;28;20038;-86
2021/07/13 11:11:28;;;;;;;0.25;0.25;;;;;;;;;;4955855;28;20049;-86
2021/07/13 11:14:03;;;;;;;0.50;0.50;;;;;;;;;;4972686;28;20487;-86
2021/07/13 11:16:35;;;;;;;0.20;0.20;;;;;;;;;;4972974;28;20039;-87
2021/07/13 11:19:02;;;;;;;0.35;0.35;;;;;;;;;;4955949;28;20039;-86
2021/07/13 11:21:37;;;;;;;0.20;0.20;;;;;;;;;;4955940;28;20043;-87
2021/07/13 11:24:04;;;;;;;0.50;0.50;;;;;;;;;;4956360;28;20043;-85
2021/07/13 11:26:31;;;;;;;0.40;0.40;;;;;;;;;;4972800;28;20073;-86
2021/07/13 11:28:58;;;;;;;0.63;0.20;;;;;;;;;;4955902;28;20053;-87
2021/07/13 11:31:25;;;;;;;0.20;0.20;;;;;;;;;;4955805;28;20045;-87
2021/07/13 11:33:54;;;;;;;0.10;0.10;;;;;;;;;;4955521;28;20047;-86
2021/07/13 11:36:53;;;;;;;0.22;0.22;;;;;;;;;;4955777;28;20043;-86
2021/07/13 11:39:29;;;;;;;0.20;0.20;;;;;;;;;;4972637;28;20051;-86
2021/07/13 11:41:56;;;;;;;0.20;0.20;;;;;;;;;;4972919;28;20074;-86
2021/07/13 11:44:22;;;;;;;0.20;0.20;;;;;;;;;;4955390;28;20055;-87
2021/07/13 11:46:50;;;;;;;0.20;0.20;;;;;;;;;;4939966;28;20047;-91
2021/07/13 11:49:25;;;;;;;0.10;0.10;;;;;;;;;;4956073;28;20475;-89
2021/07/13 11:51:51;;;;;;;0.20;0.20;;;;;;;;;;4956746;28;20077;-89
2021/07/13 11:54:18;;;;;;;0.40;0.30;;;;;;;;;;4955638;28;20070;-89
2021/07/13 11:56:45;;;;;;;0.52;0.32;;;;;;;;;;4956686;28;20042;-89
2021/07/13 11:59:11;;;;;;;0.20;0.20;;;;;;;;;;4959124;28;20043;-89
2021/07/13 12:01:40;;;;;;;0.30;0.30;;;;;;;;;;4959109;28;20038;-88
2021/07/13 12:04:07;;;;;;;0.10;0.10;;;;;;;;;;4959412;28;20038;-88
2021/07/13 12:06:33;;;;;;;0.20;0.20;;;;;;;;;;4973961;28;20118;-91
2021/07/13 12:08:59;;;;;;;0.10;0.10;;;;;;;;;;4959347;28;20491;-89
2021/07/13 12:11:27;;;;;;;0.20;0.20;;;;;;;;;;4944179;28;20066;-91
2021/07/13 12:13:53;;;;;;;0.20;0.20;;;;;;;;;;4943370;28;20051;-91
2021/07/13 12:16:22;;;;;;;0.68;0.57;;;;;;;;;;4959087;28;20046;-90
2021/07/13 12:18:51;;;;;;;0.30;0.30;;;;;;;;;;4959607;28;20547;-96
2021/07/13 12:21:21;;;;;;;0.20;0.20;;;;;;;;;;4962341;28;20042;-89
2021/07/13 12:23:48;;;;;;;0.40;0.40;;;;;;;;;;4958758;28;20534;-91
2021/07/13 12:26:20;;;;;;;0.20;0.20;;;;;;;;;;4959175;28;20042;-90
2021/07/13 12:29:05;;;;;;;0.57;0.20;;;;;;;;;;4959085;28;20061;-91
2021/07/13 12:31:32;;;;;;;0.20;0.20;;;;;;;;;;4959667;28;20495;-90
2021/07/13 12:33:58;;;;;;;0.30;0.30;;;;;;;;;;4956429;28;20047;-91
2021/07/13 12:36:32;;;;;;;0.20;0.20;;;;;;;;;;4956066;28;20042;-91
2021/07/13 12:39:11;;;;;;;0.22;0.22;;;;;;;;;;4958025;28;20038;-92
2021/07/13 12:41:39;;;;;;;0.30;0.20;;;;;;;;;;4956105;28;20051;-92
2021/07/13 12:44:25;;;;;;;0.57;0.57;;;;;;;;;;4940477;29;20138;-92
2021/07/13 12:49:34;;;;;;;0.20;0.20;;;;;;;;;;5243282;23;20059;-96
2021/07/13 12:52:31;;;;;;;0.30;0.30;;;;;;;;;;4910158;29;20054;-93
2021/07/13 12:55:00;;;;;;;0.20;0.20;;;;;;;;;;4937384;29;20058;-91
2021/07/13 12:57:32;;;;;;;0.30;0.30;;;;;;;;;;4905171;29;20551;-93
2021/07/13 13:00:13;;;;;;;0.22;0.22;;;;;;;;;;4920829;29;20043;-93
2021/07/13 13:02:39;;;;;;;0.55;0.30;;;;;;;;;;4920963;29;20096;-95
2021/07/13 13:05:05;;;;;;;0.20;0.20;;;;;;;;;;4921176;29;20039;-93
2021/07/13 13:07:32;;;;;;;1.23;0.68;;;;;;;;;;4904848;29;20480;-92
2021/07/13 13:09:58;;;;;;;0.43;0.40;;;;;;;;;;4920608;29;20039;-93
2021/07/13 13:12:24;;;;;;;0.45;0.45;;;;;;;;;;4920826;29;20036;-94
2021/07/13 13:14:50;;;;;;;0.30;0.30;;;;;;;;;;4905029;29;20054;-94
2021/07/13 13:17:17;;;;;;;0.25;0.20;;;;;;;;;;4905459;29;20480;-93
2021/07/13 13:19:47;;;;;;;0.63;0.63;;;;;;;;;;4907316;29;20416;-95
2021/07/13 13:22:17;;;;;;;0.10;0.10;;;;;;;;;;4906285;29;20047;-93
2021/07/13 13:24:43;;;;;;;0.20;0.20;;;;;;;;;;4920463;29;20047;-93
2021/07/13 13:27:12;;;;;;;0.20;0.20;;;;;;;;;;4906064;29;20062;-94
2021/07/13 13:29:44;;;;;;;0.30;0.30;;;;;;;;;;4905807;29;20582;-92
2021/07/13 13:35:44;;;;;;;0.20;0.20;;;;;;;;;;4938967;29;20050;-93
2021/07/13 13:40:55;;;;;;;0.20;0.20;;;;;;;;;;4923128;29;20040;-90
2021/07/13 13:43:21;;;;;;;0.17;0.17;;;;;;;;;;4919681;29;20043;-90
2021/07/13 13:45:47;;;;;;;0.20;0.20;;;;;;;;;;4919179;29;20036;-90
2021/07/13 13:48:13;;;;;;;0.32;0.32;;;;;;;;;;4934739;29;20080;-91
2021/07/13 13:50:39;;;;;;;0.45;0.45;;;;;;;;;;4935191;29;20102;-91
2021/07/13 13:53:05;;;;;;;0.55;0.55;;;;;;;;;;4951387;28;20040;-90
2021/07/13 13:55:32;;;;;;;0.20;0.20;;;;;;;;;;4935278;29;20078;-90
2021/07/13 13:57:58;;;;;;;0.28;0.20;;;;;;;;;;4919358;29;20047;-93
2021/07/13 14:00:24;;;;;;;0.30;0.30;;;;;;;;;;4919141;29;20211;-90
2021/07/13 14:02:50;;;;;;;0.20;0.20;;;;;;;;;;4935027;29;20035;-91
2021/07/13 14:05:17;;;;;;;2.20;0.40;;;;;;;;;;4951118;29;20055;-91
2021/07/13 14:07:43;;;;;;;0.30;0.30;;;;;;;;;;4919158;29;20107;-90
2021/07/13 14:10:09;;;;;;;0.20;0.20;;;;;;;;;;4950795;29;20115;-90
2021/07/13 14:12:35;;;;;;;0.20;0.20;;;;;;;;;;4934883;29;20043;-91
2021/07/13 14:15:01;;;;;;;0.20;0.20;;;;;;;;;;4935072;29;20495;-90
2021/07/13 14:17:27;;;;;;;0.20;0.20;;;;;;;;;;4950550;29;20040;-92
2021/07/13 14:19:53;;;;;;;0.32;0.32;;;;;;;;;;4934621;29;20036;-90
2021/07/13 14:22:20;;;;;;;0.20;0.20;;;;;;;;;;4933803;29;20076;-90
2021/07/13 14:24:47;;;;;;;0.20;0.20;;;;;;;;;;4934480;29;20126;-92
2021/07/13 14:27:15;;;;;;;0.20;0.20;;;;;;;;;;4934513;29;20044;-89
2021/07/13 14:29:41;;;;;;;0.20;0.20;;;;;;;;;;4934136;29;20485;-89
2021/07/13 14:32:08;;;;;;;0.20;0.20;;;;;;;;;;4933901;29;20039;-89
2021/07/13 14:34:34;;;;;;;0.10;0.10;;;;;;;;;;4917879;29;20048;-88
2021/07/13 14:37:02;;;;;;;0.20;0.20;;;;;;;;;;4933810;29;20086;-89
2021/07/13 14:39:32;;;;;;;0.52;0.45;;;;;;;;;;4949692;29;20044;-90
2021/07/13 14:41:58;;;;;;;1.30;0.30;;;;;;;;;;4934104;29;20110;-91
2021/07/13 14:44:24;;;;;;;0.20;0.20;;;;;;;;;;4918119;29;20044;-87
2021/07/13 14:46:50;;;;;;;0.38;0.38;;;;;;;;;;4933670;29;20054;-89
2021/07/13 14:49:16;;;;;;;0.20;0.20;;;;;;;;;;4933611;29;20059;-89
2021/07/13 14:51:52;;;;;;;0.50;0.47;;;;;;;;;;4933944;29;20119;-88
2021/07/13 14:54:18;;;;;;;0.20;0.20;;;;;;;;;;4918168;29;20123;-88
2021/07/13 14:56:44;;;;;;;0.10;0.10;;;;;;;;;;4933582;29;20045;-88